Hardshell, Kentucky
Current Conditions -  °F | °C
As of 1:53 AM on Friday 19 Dec 2014 (Local Time) from KJKL Reporting Station
Overcast Overcast  
Wind Chill: 30°   Ceiling: 6000
Heat Index: 30°   Visibility: 10mi
Dew Point: 24°   Wind: 0mph
Humidity: 79%   Direction: NA
Pressure: 30.19"   Gusts: NA
Location:  37.4863°N, 83.3327°W
Report Text: KJKL 190653Z AUTO 00000KT 10SM OVC060 M01/M04 A3019 RMK AO2 SLP231 T10111044
Loading
Personal Weather Stations






























Interactive Weather Map New forecast layout! Learn more

10-Day Weather Forecast

Advertisements
Track Severe Weather on mobile